Time;durP1;ratioP1;P1;durP2;ratioP2;P2;SDS_P1;SDS_P2;PMS_P1;PMS_P2;Temp;Humidity;BMP_temperature;BMP_pressure;BME280_temperature;BME280_humidity;BME280_pressure;Samples;Min_cycle;Max_cycle;Signal;HPM_P1;HPM_P2
2022/12/29 00:02:08;;;;;;;3.63;3.00;;;9.70;99.90;;;;;;5040756;28;20059;-80
2022/12/29 00:04:34;;;;;;;2.78;2.58;;;10.80;99.90;;;;;;5023152;28;20037;-80
2022/12/29 00:07:00;;;;;;;3.05;2.85;;;10.00;99.90;;;;;;5055264;28;20056;-80
2022/12/29 00:09:26;;;;;;;4.15;3.00;;;9.40;99.90;;;;;;5042252;28;20805;-80
2022/12/29 00:11:52;;;;;;;4.05;2.90;;;10.90;99.90;;;;;;5039057;28;20042;-80
2022/12/29 00:17:03;;;;;;;2.70;2.60;;;9.70;99.90;;;;;;5040920;28;20048;-79
2022/12/29 00:36:08;;;;;;;2.70;2.42;;;9.90;99.90;;;;;;5065744;28;20077;-80
2022/12/29 00:44:09;;;;;;;3.17;2.88;;;9.90;99.90;;;;;;5038366;28;20057;-80
2022/12/29 00:46:41;;;;;;;3.20;2.97;;;10.00;99.90;;;;;;5026153;28;20052;-80
2022/12/29 00:51:55;;;;;;;4.40;3.05;;;10.00;99.90;;;;;;5038477;28;20057;-81
2022/12/29 00:54:21;;;;;;;4.57;2.92;;;11.20;99.90;;;;;;5045050;28;20046;-80
2022/12/29 00:56:48;;;;;;;3.15;2.92;;;10.00;99.90;;;;;;5044838;28;20037;-80
2022/12/29 00:59:14;;;;;;;3.33;2.88;;;10.00;99.90;;;;;;5040771;28;20045;-80
2022/12/29 01:01:40;;;;;;;2.92;2.28;;;10.20;99.90;;;;;;5033934;28;20072;-81
2022/12/29 01:04:07;;;;;;;3.55;3.30;;;10.10;99.90;;;;;;5039294;28;20380;-79
2022/12/29 01:06:33;;;;;;;3.83;2.47;;;10.10;99.90;;;;;;5020534;28;20067;-80
2022/12/29 01:11:43;;;;;;;6.30;2.80;;;10.10;99.90;;;;;;5038467;28;20052;-80
2022/12/29 01:14:09;;;;;;;3.20;2.88;;;11.00;99.90;;;;;;5049180;28;20037;-80
2022/12/29 01:16:36;;;;;;;2.65;2.47;;;10.00;99.90;;;;;;5040209;28;20108;-81
2022/12/29 01:19:03;;;;;;;2.88;2.67;;;10.50;99.90;;;;;;5047133;28;20049;-81
2022/12/29 01:21:28;;;;;;;2.72;2.53;;;11.40;99.90;;;;;;5046000;28;20041;-81
2022/12/29 01:23:54;;;;;;;3.97;2.30;;;11.10;99.90;;;;;;5034172;28;20064;-81
2022/12/29 01:26:20;;;;;;;3.30;2.55;;;10.10;99.90;;;;;;5033723;28;20051;-83
2022/12/29 01:28:46;;;;;;;3.20;2.72;;;10.10;99.90;;;;;;5030879;28;20056;-81
2022/12/29 01:31:13;;;;;;;4.55;2.38;;;10.10;99.90;;;;;;5049924;28;20065;-81
2022/12/29 01:33:39;;;;;;;3.10;2.67;;;10.10;99.90;;;;;;5044897;28;20124;-81
2022/12/29 01:36:07;;;;;;;2.40;2.20;;;10.10;99.90;;;;;;5037225;28;20140;-79
2022/12/29 01:38:34;;;;;;;6.53;2.72;;;10.10;99.90;;;;;;5046828;28;20095;-81
2022/12/29 01:41:01;;;;;;;2.58;2.47;;;10.10;99.90;;;;;;5045281;28;20123;-81
2022/12/29 01:43:51;;;;;;;3.28;2.97;;;10.80;99.90;;;;;;5033034;28;20076;-81
2022/12/29 01:46:39;;;;;;;5.80;2.85;;;10.00;99.90;;;;;;5046042;28;20110;-81
2022/12/29 01:49:18;;;;;;;3.10;2.90;;;10.00;99.90;;;;;;5036522;28;20045;-80
2022/12/29 01:51:49;;;;;;;4.10;3.65;;;10.00;99.90;;;;;;5048116;28;20047;-81
2022/12/29 01:54:25;;;;;;;3.33;3.03;;;9.90;99.90;;;;;;5036103;28;20087;-81
2022/12/29 01:56:53;;;;;;;3.00;2.80;;;10.90;99.90;;;;;;5036415;28;20048;-81
2022/12/29 01:59:24;;;;;;;3.30;3.00;;;10.10;99.90;;;;;;5040997;28;20041;-83
2022/12/29 02:01:50;;;;;;;3.33;3.03;;;9.80;99.90;;;;;;5039955;28;20091;-80
2022/12/29 02:04:17;;;;;;;3.05;2.75;;;11.00;99.90;;;;;;5020642;28;20120;-81
2022/12/29 02:06:51;;;;;;;3.30;2.92;;;9.80;99.90;;;;;;5034469;28;20049;-80
2022/12/29 02:09:16;;;;;;;2.72;2.53;;;9.90;99.90;;;;;;5040237;28;20400;-81
2022/12/29 02:11:42;;;;;;;2.88;2.67;;;9.90;99.90;;;;;;5072935;28;20045;-80
2022/12/29 02:14:12;;;;;;;4.55;1.90;;;11.20;99.90;;;;;;5053982;28;20041;-80
2022/12/29 02:16:53;;;;;;;2.53;2.08;;;10.00;99.90;;;;;;5037666;28;20061;-81
2022/12/29 02:19:44;;;;;;;2.40;2.30;;;9.90;99.90;;;;;;5052238;28;20041;-81
2022/12/29 02:22:24;;;;;;;2.20;2.00;;;10.00;99.90;;;;;;5045665;28;20045;-80
2022/12/29 02:25:32;;;;;;;2.55;2.25;;;9.90;99.90;;;;;;5040101;28;20049;-80
2022/12/29 02:28:28;;;;;;;4.93;1.95;;;9.90;99.90;;;;;;5055932;28;20040;-80
2022/12/29 02:30:57;;;;;;;2.78;2.30;;;10.00;99.90;;;;;;5045839;28;20102;-80
2022/12/29 02:33:37;;;;;;;4.38;1.77;;;11.40;99.90;;;;;;5043751;28;20519;-80
2022/12/29 02:36:46;;;;;;;2.15;1.65;;;10.00;99.90;;;;;;5061389;28;20132;-81
2022/12/29 02:39:23;;;;;;;3.05;1.58;;;10.00;99.90;;;;;;5040878;28;20053;-81
2022/12/29 02:42:08;;;;;;;2.55;1.90;;;10.00;99.90;;;;;;5046241;28;20037;-82
2022/12/29 02:44:52;;;;;;;2.70;1.35;;;10.00;99.90;;;;;;5039776;28;20130;-80
2022/12/29 02:47:44;;;;;;;1.58;1.25;;;10.00;99.90;;;;;;5032604;28;20436;-81
2022/12/29 02:50:23;;;;;;;3.63;1.50;;;10.00;99.90;;;;;;5033193;28;20054;-81
2022/12/29 02:52:59;;;;;;;2.13;1.70;;;10.00;99.90;;;;;;5055831;28;20056;-82
2022/12/29 02:55:25;;;;;;;1.67;1.20;;;10.50;99.90;;;;;;5050352;28;20404;-82
2022/12/29 02:58:12;;;;;;;1.92;1.00;;;10.10;99.90;;;;;;5031771;28;20051;-82
2022/12/29 03:01:02;;;;;;;1.85;1.20;;;10.10;99.90;;;;;;5084537;28;20048;-84
2022/12/29 03:03:33;;;;;;;2.08;1.02;;;10.10;99.90;;;;;;5050819;28;20044;-81
2022/12/29 03:06:02;;;;;;;1.95;1.17;;;10.10;99.90;;;;;;5056426;28;20068;-83
2022/12/29 03:08:54;;;;;;;0.93;0.73;;;10.10;99.90;;;;;;5049893;28;20412;-79
2022/12/29 03:17:27;;;;;;;1.80;0.98;;;10.00;99.90;;;;;;5051024;28;20118;-80
2022/12/29 03:20:01;;;;;;;1.67;0.82;;;10.00;99.90;;;;;;5043214;28;20044;-82
2022/12/29 03:22:31;;;;;;;3.13;0.70;;;10.00;99.90;;;;;;5050402;28;20048;-80
2022/12/29 03:25:05;;;;;;;2.15;0.80;;;10.10;99.90;;;;;;5048994;28;20818;-80
2022/12/29 03:27:36;;;;;;;4.30;0.70;;;10.10;99.90;;;;;;5045064;28;20374;-80
2022/12/29 03:30:04;;;;;;;3.58;0.73;;;10.10;99.90;;;;;;5025996;28;20040;-80
2022/12/29 03:32:35;;;;;;;2.90;1.00;;;10.10;99.90;;;;;;5049634;28;20072;-80
2022/12/29 03:35:04;;;;;;;2.40;0.70;;;10.00;99.90;;;;;;5052495;28;20068;-80
2022/12/29 03:37:36;;;;;;;2.53;0.63;;;9.90;99.90;;;;;;5066517;28;20407;-79
2022/12/29 03:40:03;;;;;;;2.33;0.68;;;9.90;99.90;;;;;;5081896;28;20373;-79
2022/12/29 03:42:32;;;;;;;1.48;0.40;;;10.00;99.90;;;;;;5049965;28;20048;-80
2022/12/29 03:44:58;;;;;;;1.02;0.47;;;10.00;99.90;;;;;;5047451;28;20690;-80
2022/12/29 03:47:24;;;;;;;2.25;0.40;;;9.90;99.90;;;;;;5061001;28;20047;-80
2022/12/29 03:49:50;;;;;;;4.97;0.50;;;11.00;99.90;;;;;;5049604;28;20063;-80
2022/12/29 03:52:16;;;;;;;1.58;1.05;;;9.80;99.90;;;;;;5050170;28;20124;-79
2022/12/29 03:54:42;;;;;;;2.08;0.90;;;9.90;99.90;;;;;;5029347;28;20057;-80
2022/12/29 03:57:09;;;;;;;1.05;0.47;;;9.90;99.90;;;;;;5032329;28;20124;-82
2022/12/29 03:59:34;;;;;;;4.40;0.70;;;9.90;99.90;;;;;;5048467;28;20128;-79
2022/12/29 04:02:00;;;;;;;1.80;0.60;;;11.20;99.90;;;;;;5048139;28;20132;-80
2022/12/29 04:04:26;;;;;;;5.10;0.77;;;10.00;99.90;;;;;;5037442;28;20480;-80
2022/12/29 04:06:51;;;;;;;5.15;0.93;;;10.00;99.90;;;;;;5082020;28;20094;-79
2022/12/29 04:09:17;;;;;;;7.00;1.67;;;10.50;99.90;;;;;;5047460;28;20507;-78
2022/12/29 04:11:42;;;;;;;2.63;0.47;;;10.00;99.90;;;;;;5048814;28;20450;-81
2022/12/29 04:14:08;;;;;;;4.97;0.60;;;10.70;99.90;;;;;;5031564;28;20120;-79
2022/12/29 04:16:35;;;;;;;3.75;0.82;;;11.30;99.90;;;;;;5050682;28;20048;-79
2022/12/29 04:19:02;;;;;;;3.38;0.60;;;10.50;99.90;;;;;;5055282;28;20152;-82
2022/12/29 04:21:27;;;;;;;2.83;0.38;;;10.00;99.90;;;;;;5061080;28;20507;-80
2022/12/29 04:23:53;;;;;;;3.45;0.75;;;10.00;99.90;;;;;;5047970;28;20080;-80
2022/12/29 04:26:19;;;;;;;3.72;0.70;;;10.00;99.90;;;;;;5050361;28;20358;-79
2022/12/29 04:28:44;;;;;;;6.25;0.85;;;11.20;99.90;;;;;;5065030;28;20128;-80
2022/12/29 04:31:10;;;;;;;4.47;0.57;;;9.90;99.90;;;;;;5050102;28;20669;-79
2022/12/29 04:33:36;;;;;;;4.53;0.57;;;10.00;99.90;;;;;;5050555;28;20039;-77
2022/12/29 04:36:02;;;;;;;3.85;0.45;;;10.30;99.90;;;;;;5046037;28;20049;-79
2022/12/29 04:38:28;;;;;;;6.22;0.68;;;9.60;99.90;;;;;;5061349;28;20485;-76
2022/12/29 04:40:53;;;;;;;4.72;0.75;;;10.90;99.90;;;;;;5048190;28;20504;-78
2022/12/29 04:43:19;;;;;;;2.83;0.40;;;10.50;99.90;;;;;;5047934;28;20037;-78
2022/12/29 04:45:46;;;;;;;5.53;0.80;;;10.20;99.90;;;;;;5082276;28;20641;-78
2022/12/29 04:48:12;;;;;;;6.10;1.23;;;9.90;99.90;;;;;;5048106;28;20029;-78
2022/12/29 04:50:39;;;;;;;5.15;0.60;;;9.90;99.90;;;;;;5049231;28;20136;-80
2022/12/29 04:53:05;;;;;;;4.97;0.45;;;9.80;99.90;;;;;;5045040;28;20041;-77
2022/12/29 04:55:30;;;;;;;3.80;0.88;;;10.50;99.90;;;;;;5064519;28;20086;-78
2022/12/29 04:57:56;;;;;;;5.30;1.02;;;9.80;99.90;;;;;;5081797;28;20049;-77
2022/12/29 05:00:22;;;;;;;12.23;1.70;;;9.80;99.90;;;;;;5031548;28;20056;-78
2022/12/29 05:02:48;;;;;;;6.72;1.00;;;11.00;99.90;;;;;;5081755;28;20103;-78
2022/12/29 05:05:14;;;;;;;14.02;2.33;;;9.70;99.90;;;;;;5051857;28;20075;-77
2022/12/29 05:07:40;;;;;;;10.10;1.33;;;9.70;99.90;;;;;;5051345;28;20040;-78
2022/12/29 05:10:07;;;;;;;8.60;1.25;;;10.70;99.90;;;;;;5049484;28;20110;-77
2022/12/29 05:12:34;;;;;;;8.85;1.58;;;9.60;99.90;;;;;;5038198;28;20660;-78
2022/12/29 05:15:01;;;;;;;8.38;1.17;;;10.70;99.90;;;;;;5056843;28;20111;-77
2022/12/29 05:17:27;;;;;;;8.48;1.40;;;9.40;99.90;;;;;;5030706;28;20486;-78
2022/12/29 05:19:53;;;;;;;9.38;1.40;;;9.50;99.90;;;;;;5051331;28;20045;-77
2022/12/29 05:22:18;;;;;;;6.85;1.13;;;9.50;99.90;;;;;;5048183;28;20052;-78
2022/12/29 05:24:44;;;;;;;5.82;0.98;;;9.40;99.90;;;;;;5051618;28;20090;-78
2022/12/29 05:27:10;;;;;;;9.18;1.10;;;9.30;99.90;;;;;;5047785;28;20044;-77
2022/12/29 05:29:35;;;;;;;7.03;1.10;;;11.00;99.90;;;;;;5052789;28;20476;-77
2022/12/29 05:32:01;;;;;;;9.57;1.23;;;9.40;99.90;;;;;;5049167;28;20128;-77
2022/12/29 05:34:26;;;;;;;10.88;1.17;;;9.30;99.90;;;;;;5043850;28;20041;-77
2022/12/29 05:36:52;;;;;;;7.10;1.42;;;10.10;99.90;;;;;;5048261;28;20048;-77
2022/12/29 05:39:18;;;;;;;5.47;1.05;;;9.30;99.90;;;;;;5027905;28;20159;-77
2022/12/29 05:41:43;;;;;;;5.78;1.52;;;9.30;99.90;;;;;;5050658;28;20171;-78
2022/12/29 05:44:10;;;;;;;4.88;1.35;;;9.30;99.90;;;;;;5047914;28;20064;-78
2022/12/29 05:46:36;;;;;;;10.27;1.60;;;9.90;99.90;;;;;;5029662;28;20611;-78
2022/12/29 05:49:02;;;;;;;9.60;1.80;;;9.30;99.90;;;;;;5080227;28;20605;-77
2022/12/29 05:51:28;;;;;;;9.02;1.85;;;9.30;99.90;;;;;;5053968;28;20036;-77
2022/12/29 05:53:53;;;;;;;11.00;1.52;;;9.30;99.90;;;;;;5045365;28;20120;-77
2022/12/29 05:56:19;;;;;;;10.38;1.55;;;9.30;99.90;;;;;;5048365;28;20048;-77
2022/12/29 05:58:45;;;;;;;10.77;1.48;;;9.30;99.90;;;;;;5033625;28;20045;-77
2022/12/29 06:01:10;;;;;;;9.20;1.88;;;10.60;99.90;;;;;;5045388;28;20040;-77
2022/12/29 06:03:36;;;;;;;10.73;1.45;;;9.30;99.90;;;;;;5050969;28;20123;-77
2022/12/29 06:06:02;;;;;;;7.78;1.20;;;10.80;99.90;;;;;;5047518;28;20826;-77
2022/12/29 06:08:28;;;;;;;10.68;1.40;;;9.40;99.90;;;;;;5028539;28;20040;-78
2022/12/29 06:10:53;;;;;;;12.40;1.83;;;9.30;99.90;;;;;;5078240;28;20088;-78
2022/12/29 06:13:19;;;;;;;5.68;1.33;;;9.30;99.90;;;;;;5046438;28;20045;-77
2022/12/29 06:15:44;;;;;;;9.82;1.60;;;10.10;99.90;;;;;;5047162;28;20063;-77
2022/12/29 06:18:10;;;;;;;12.40;1.27;;;9.20;99.90;;;;;;5024305;28;20036;-77
2022/12/29 06:20:36;;;;;;;12.13;2.03;;;9.90;99.90;;;;;;5047300;28;20053;-77
2022/12/29 06:23:02;;;;;;;13.30;1.80;;;9.20;99.90;;;;;;5045483;28;20435;-77
2022/12/29 06:25:30;;;;;;;13.20;1.77;;;10.10;99.90;;;;;;5030271;28;20115;-77
2022/12/29 06:27:56;;;;;;;10.63;1.50;;;9.10;99.90;;;;;;5029522;28;20433;-76
2022/12/29 06:30:22;;;;;;;12.27;2.00;;;9.40;99.90;;;;;;5025015;28;20045;-77
2022/12/29 06:32:47;;;;;;;9.07;1.42;;;10.30;99.90;;;;;;5059149;28;20052;-77
2022/12/29 06:35:13;;;;;;;8.73;2.15;;;9.20;99.90;;;;;;5045972;28;20460;-76
2022/12/29 06:37:39;;;;;;;14.63;1.75;;;9.20;99.90;;;;;;5047980;28;20057;-76
2022/12/29 06:40:05;;;;;;;10.82;1.85;;;9.70;99.90;;;;;;5051156;28;20127;-77
2022/12/29 06:42:30;;;;;;;17.13;2.72;;;9.10;99.90;;;;;;5046195;28;20470;-77
2022/12/29 06:44:58;;;;;;;14.70;1.67;;;9.10;99.90;;;;;;5040619;28;20102;-76
2022/12/29 06:47:24;;;;;;;14.02;1.52;;;9.10;99.90;;;;;;5046676;28;20106;-76
2022/12/29 06:49:50;;;;;;;16.35;1.95;;;9.10;99.90;;;;;;5033351;28;20583;-76
2022/12/29 06:52:15;;;;;;;11.55;1.63;;;9.30;99.90;;;;;;5047971;28;20120;-77
2022/12/29 06:54:41;;;;;;;11.90;1.85;;;9.10;99.90;;;;;;5033968;28;20473;-76
2022/12/29 06:57:07;;;;;;;15.02;2.15;;;9.10;99.90;;;;;;5047313;28;20107;-76
2022/12/29 06:59:32;;;;;;;11.90;2.28;;;10.40;99.90;;;;;;5035585;28;20045;-77
2022/12/29 07:01:58;;;;;;;16.85;2.25;;;9.10;99.90;;;;;;5078484;28;20124;-77
2022/12/29 07:04:24;;;;;;;13.52;2.38;;;10.40;99.90;;;;;;5048450;28;20031;-77
2022/12/29 07:06:49;;;;;;;12.05;2.38;;;9.00;99.90;;;;;;5032048;28;20044;-77
2022/12/29 07:09:15;;;;;;;17.88;2.50;;;10.80;99.90;;;;;;5031312;28;20069;-77
2022/12/29 07:11:41;;;;;;;16.13;2.40;;;9.00;99.90;;;;;;5047979;28;20037;-76
2022/12/29 07:14:06;;;;;;;16.58;2.38;;;10.40;99.90;;;;;;5045418;28;20083;-77
2022/12/29 07:16:34;;;;;;;7.72;1.45;;;9.10;99.90;;;;;;5048683;28;20048;-76
2022/12/29 07:18:59;;;;;;;14.73;1.83;;;10.50;99.90;;;;;;5047029;28;20143;-76
2022/12/29 07:21:25;;;;;;;10.77;1.90;;;10.80;99.90;;;;;;5048724;28;20112;-76
2022/12/29 07:23:51;;;;;;;12.15;2.10;;;10.60;99.90;;;;;;5053511;28;21637;-77
2022/12/29 07:26:19;;;;;;;10.45;1.83;;;9.10;99.90;;;;;;5082217;28;20041;-76
2022/12/29 07:28:45;;;;;;;13.10;2.65;;;9.10;99.90;;;;;;5030985;28;20041;-77
2022/12/29 07:31:16;;;;;;;11.38;1.88;;;9.10;99.90;;;;;;5030291;28;20060;-76
2022/12/29 07:33:43;;;;;;;10.10;1.85;;;9.10;99.90;;;;;;5033476;28;20469;-77
2022/12/29 07:36:09;;;;;;;10.45;2.28;;;9.20;99.90;;;;;;5047864;28;20506;-76
2022/12/29 07:38:35;;;;;;;16.83;2.30;;;9.20;99.90;;;;;;5050279;28;20047;-76
2022/12/29 07:41:00;;;;;;;11.30;2.15;;;10.60;99.90;;;;;;5049638;28;20048;-77
2022/12/29 07:43:26;;;;;;;14.43;2.88;;;10.90;99.90;;;;;;5033262;28;20524;-77
2022/12/29 07:45:52;;;;;;;11.65;2.13;;;9.30;99.90;;;;;;5033610;28;20366;-76
2022/12/29 07:48:18;;;;;;;10.65;1.75;;;9.20;99.90;;;;;;5054754;28;20056;-76
2022/12/29 07:50:43;;;;;;;13.52;2.20;;;10.00;99.90;;;;;;5036956;28;20041;-77
2022/12/29 07:53:09;;;;;;;13.73;2.63;;;9.70;99.90;;;;;;5032687;28;20068;-78
2022/12/29 07:55:35;;;;;;;12.43;2.13;;;9.20;99.90;;;;;;5068984;28;20041;-78
2022/12/29 07:58:00;;;;;;;13.07;1.77;;;9.20;99.90;;;;;;5052023;28;20496;-76
2022/12/29 08:00:26;;;;;;;17.25;3.17;;;9.20;99.90;;;;;;5048484;28;20029;-77
2022/12/29 08:02:52;;;;;;;18.27;2.67;;;9.20;99.90;;;;;;5088574;28;20056;-76
2022/12/29 08:05:17;;;;;;;14.10;2.35;;;9.20;99.90;;;;;;5048474;28;20082;-77
2022/12/29 08:07:45;;;;;;;11.57;2.17;;;8.30;99.90;;;;;;5053587;28;20044;-78
2022/12/29 08:10:12;;;;;;;17.00;2.70;;;9.20;99.90;;;;;;5049112;28;20052;-77
2022/12/29 08:12:39;;;;;;;20.38;2.25;;;9.20;99.90;;;;;;5057183;28;20045;-77
2022/12/29 08:15:05;;;;;;;18.65;2.63;;;9.20;99.90;;;;;;5053797;28;20199;-76
2022/12/29 08:17:31;;;;;;;18.02;2.67;;;9.30;99.90;;;;;;5046809;28;20165;-76
2022/12/29 08:19:57;;;;;;;18.50;2.50;;;9.20;99.90;;;;;;5046390;28;21056;-77
2022/12/29 08:22:23;;;;;;;17.30;2.88;;;10.50;99.90;;;;;;5061419;28;20154;-76
2022/12/29 08:24:49;;;;;;;11.88;2.50;;;9.20;99.90;;;;;;5046478;28;20086;-76
2022/12/29 08:27:15;;;;;;;9.88;2.42;;;9.50;99.90;;;;;;5034633;28;20045;-76
2022/12/29 08:29:41;;;;;;;15.63;2.30;;;9.20;99.90;;;;;;5032026;28;20072;-76
2022/12/29 08:32:07;;;;;;;17.90;2.92;;;10.80;99.90;;;;;;5035319;28;20049;-76
2022/12/29 08:34:32;;;;;;;14.00;2.65;;;9.20;99.90;;;;;;5040396;28;20696;-76
2022/12/29 08:36:58;;;;;;;20.80;3.50;;;9.70;99.90;;;;;;5048795;28;20132;-76
2022/12/29 08:39:24;;;;;;;16.98;4.78;;;9.40;99.90;;;;;;5048412;28;20413;-76
2022/12/29 08:41:50;;;;;;;15.43;2.28;;;9.00;99.90;;;;;;5065114;28;20052;-76
2022/12/29 08:44:15;;;;;;;12.98;1.95;;;9.10;99.90;;;;;;5041905;28;20490;-76
2022/12/29 08:46:42;;;;;;;23.30;3.72;;;9.00;99.90;;;;;;5043749;28;20045;-75
2022/12/29 08:49:07;;;;;;;15.80;2.50;;;9.00;99.90;;;;;;5029210;28;20041;-76
2022/12/29 08:51:33;;;;;;;16.60;3.40;;;9.00;99.90;;;;;;5047326;28;20060;-76
2022/12/29 08:53:59;;;;;;;22.70;4.05;;;9.00;99.90;;;;;;5048204;28;20072;-77
2022/12/29 08:56:25;;;;;;;20.85;3.70;;;9.00;99.90;;;;;;5030844;28;20102;-76
2022/12/29 08:58:52;;;;;;;27.90;3.35;;;9.70;99.90;;;;;;5081796;28;20508;-76
2022/12/29 09:01:18;;;;;;;24.98;3.47;;;8.90;99.90;;;;;;5047122;28;20503;-77
2022/12/29 09:03:45;;;;;;;15.73;2.83;;;8.90;99.90;;;;;;5028877;28;20044;-77
2022/12/29 09:06:10;;;;;;;22.27;3.42;;;8.90;99.90;;;;;;5047900;28;20075;-76
2022/12/29 09:08:36;;;;;;;17.50;2.67;;;9.80;99.90;;;;;;5041565;28;20434;-76
2022/12/29 09:11:11;;;;;;;23.90;3.45;;;10.40;99.90;;;;;;5028064;28;20056;-76
2022/12/29 09:13:37;;;;;;;;;;;9.00;99.90;;;;;;5044909;28;20477;-77
2022/12/29 09:16:03;;;;;;;21.08;3.38;;;9.00;99.90;;;;;;5078752;28;19966;-76
2022/12/29 09:18:30;;;;;;;13.05;2.03;;;9.00;99.90;;;;;;5031297;28;20036;-76
2022/12/29 09:21:01;;;;;;;17.33;3.30;;;9.70;99.90;;;;;;5045009;28;20069;-77
2022/12/29 09:23:27;;;;;;;24.35;4.15;;;9.10;99.90;;;;;;5031114;28;20704;-77
2022/12/29 09:25:54;;;;;;;22.13;4.18;;;9.10;99.90;;;;;;5037823;28;20053;-78
2022/12/29 09:28:21;;;;;;;20.38;3.25;;;9.00;99.90;;;;;;5045963;28;20072;-77
2022/12/29 09:30:47;;;;;;;13.65;3.15;;;9.00;99.90;;;;;;5032202;28;20102;-79
2022/12/29 09:33:13;;;;;;;20.40;3.17;;;9.00;99.90;;;;;;5047163;28;20120;-77
2022/12/29 09:35:45;;;;;;;16.50;2.95;;;8.90;99.90;;;;;;5033899;28;20033;-78
2022/12/29 09:38:11;;;;;;;12.63;2.63;;;9.00;99.90;;;;;;5051185;28;20049;-77
2022/12/29 09:40:38;;;;;;;17.23;2.47;;;10.20;99.90;;;;;;4699266;28;9999827;-76
2022/12/29 09:43:38;;;;;;;12.00;2.47;;;8.90;99.90;;;;;;5030470;28;20033;-78
2022/12/29 09:46:32;;;;;;;17.17;2.17;;;8.90;99.90;;;;;;5044573;28;20511;-77
2022/12/29 09:49:24;;;;;;;12.23;2.10;;;8.90;99.90;;;;;;5028445;28;20081;-77
2022/12/29 09:52:03;;;;;;;16.27;2.75;;;8.90;99.90;;;;;;5026265;28;20082;-77
2022/12/29 09:54:57;;;;;;;12.75;2.08;;;8.90;99.90;;;;;;5045697;28;20076;-77
2022/12/29 09:57:25;;;;;;;16.42;2.25;;;9.70;99.90;;;;;;5049793;28;20110;-78
2022/12/29 09:59:55;;;;;;;11.85;2.80;;;8.90;99.90;;;;;;5042621;28;20083;-77
2022/12/29 10:02:42;;;;;;;13.43;2.25;;;8.90;99.90;;;;;;5052271;28;20049;-78
2022/12/29 10:05:37;;;;;;;11.05;1.80;;;8.90;99.90;;;;;;5043420;28;20081;-79
2022/12/29 10:08:13;;;;;;;15.27;1.83;;;8.90;99.90;;;;;;5060650;28;20044;-77
2022/12/29 10:10:45;;;;;;;15.30;2.80;;;8.80;99.90;;;;;;5030091;28;20055;-77
2022/12/29 10:13:18;;;;;;;14.55;2.70;;;8.80;99.90;;;;;;5062602;28;20426;-79
2022/12/29 10:15:50;;;;;;;16.13;2.30;;;8.80;99.90;;;;;;5029071;28;20033;-77
2022/12/29 10:18:34;;;;;;;15.98;2.58;;;8.80;99.90;;;;;;5048343;28;20045;-78
2022/12/29 10:21:34;;;;;;;14.93;2.60;;;8.70;99.90;;;;;;5040441;28;20040;-78
2022/12/29 10:24:04;;;;;;;18.15;2.95;;;8.70;99.90;;;;;;5075398;28;20332;-78
2022/12/29 10:26:37;;;;;;;18.23;4.55;;;8.60;99.90;;;;;;5042513;28;20052;-78
2022/12/29 10:29:14;;;;;;;16.87;2.73;;;8.60;99.90;;;;;;5050608;28;20064;-79
2022/12/29 10:32:02;;;;;;;14.45;1.88;;;8.50;99.90;;;;;;5062078;28;20325;-78
2022/12/29 10:34:50;;;;;;;17.45;2.45;;;8.50;99.90;;;;;;5044590;28;20469;-78
2022/12/29 10:37:35;;;;;;;14.02;1.80;;;8.50;99.90;;;;;;5040656;28;20048;-78
2022/12/29 10:40:02;;;;;;;;;;;8.50;99.90;;;;;;5039513;28;20151;-78
2022/12/29 10:42:43;;;;;;;15.90;2.38;;;8.50;99.90;;;;;;5047880;28;19925;-79
2022/12/29 10:45:14;;;;;;;14.98;2.88;;;8.50;99.90;;;;;;5023346;28;20040;-79
2022/12/29 10:48:00;;;;;;;16.35;2.85;;;8.50;99.90;;;;;;5039763;28;20044;-79
2022/12/29 10:50:28;;;;;;;13.77;2.95;;;8.40;99.90;;;;;;5057639;28;20098;-79
2022/12/29 10:53:01;;;;;;;22.67;3.38;;;8.40;99.90;;;;;;5048972;28;20118;-79
2022/12/29 10:55:36;;;;;;;14.38;2.60;;;8.40;99.90;;;;;;5051831;28;20041;-80
2022/12/29 10:58:05;;;;;;;;;;;8.50;99.90;;;;;;5042000;28;20057;-79
2022/12/29 11:00:33;;;;;;;11.55;2.33;;;8.50;99.90;;;;;;5049093;28;19975;-78
2022/12/29 11:03:41;;;;;;;9.10;2.38;;;8.60;99.90;;;;;;5025008;28;20048;-79
2022/12/29 11:06:25;;;;;;;16.80;2.85;;;8.70;99.90;;;;;;5004899;28;20257;-79
2022/12/29 11:08:56;;;;;;;18.65;3.58;;;9.70;99.90;;;;;;5044733;28;20049;-78
2022/12/29 11:11:26;;;;;;;23.30;4.50;;;8.80;99.90;;;;;;5049286;28;20159;-81
2022/12/29 11:13:59;;;;;;;19.67;3.05;;;8.80;99.90;;;;;;5047917;28;20057;-80
2022/12/29 11:16:33;;;;;;;22.45;4.90;;;8.90;99.90;;;;;;5042528;28;20114;-79
2022/12/29 11:18:59;;;;;;;24.95;4.10;;;8.90;99.90;;;;;;5045325;28;20245;-78
2022/12/29 11:21:30;;;;;;;24.23;5.03;;;8.90;99.90;;;;;;5060884;28;20128;-78
2022/12/29 11:24:18;;;;;;;21.27;2.88;;;8.90;99.90;;;;;;5042630;28;20061;-78
2022/12/29 11:26:44;;;;;;;30.15;4.40;;;9.00;99.90;;;;;;5049172;28;20041;-78
2022/12/29 11:29:16;;;;;;;20.45;3.42;;;8.80;99.90;;;;;;5047533;28;20044;-78
2022/12/29 11:31:47;;;;;;;23.33;3.60;;;8.90;99.90;;;;;;5081258;28;20064;-78
2022/12/29 11:34:25;;;;;;;14.93;2.85;;;10.10;99.90;;;;;;5047015;28;20068;-78
2022/12/29 11:36:53;;;;;;;28.67;4.03;;;9.00;99.90;;;;;;5056343;28;20107;-78
2022/12/29 11:39:33;;;;;;;13.40;2.97;;;9.00;99.90;;;;;;5047173;28;20044;-78
2022/12/29 11:42:00;;;;;;;15.07;3.17;;;9.00;99.90;;;;;;5049037;28;20045;-79
2022/12/29 11:44:27;;;;;;;20.65;2.47;;;9.10;99.90;;;;;;5042515;28;20466;-78
2022/12/29 11:46:53;;;;;;;19.17;3.13;;;10.50;99.90;;;;;;5049157;28;20068;-79
2022/12/29 11:49:24;;;;;;;22.63;2.83;;;9.10;99.90;;;;;;5025553;28;20040;-78
2022/12/29 11:51:54;;;;;;;21.40;3.92;;;9.20;99.90;;;;;;5026277;28;20115;-79
2022/12/29 11:54:36;;;;;;;26.08;4.28;;;9.10;99.90;;;;;;5035647;28;20034;-79
2022/12/29 11:57:18;;;;;;;25.88;5.75;;;9.10;99.90;;;;;;5016395;28;20084;-77
2022/12/29 11:59:54;;;;;;;24.90;4.18;;;9.10;99.90;;;;;;5025375;28;20045;-80
2022/12/29 12:02:21;;;;;;;32.33;4.10;;;9.20;99.90;;;;;;5079399;28;20483;-79
2022/12/29 12:04:50;;;;;;;29.65;5.15;;;9.50;99.90;;;;;;5035209;28;20453;-77
2022/12/29 12:07:25;;;;;;;25.38;4.30;;;10.10;99.90;;;;;;5045868;28;20048;-77
2022/12/29 12:09:58;;;;;;;32.75;5.10;;;9.20;99.90;;;;;;5046991;28;20055;-81
2022/12/29 12:12:37;;;;;;;24.38;4.55;;;9.10;99.90;;;;;;5040126;28;20067;-79
2022/12/29 12:15:03;;;;;;;29.38;4.78;;;9.10;99.90;;;;;;5043907;28;20041;-78
2022/12/29 12:17:43;;;;;;;23.70;4.88;;;9.10;99.90;;;;;;5049653;28;20041;-78
2022/12/29 12:20:23;;;;;;;23.88;4.32;;;9.10;99.90;;;;;;5025011;28;20086;-78
2022/12/29 12:23:18;;;;;;;23.92;4.40;;;9.10;99.90;;;;;;5045441;28;20060;-79
2022/12/29 12:26:01;;;;;;;28.92;5.20;;;9.10;99.90;;;;;;5037964;28;20722;-78
2022/12/29 12:28:42;;;;;;;28.02;7.43;;;9.00;99.90;;;;;;5048941;28;20049;-78
2022/12/29 12:31:39;;;;;;;18.73;4.25;;;9.00;99.90;;;;;;5043445;28;20037;-78
2022/12/29 12:34:10;;;;;;;21.05;3.10;;;9.00;99.90;;;;;;5014228;28;20053;-78
2022/12/29 12:36:54;;;;;;;21.50;4.15;;;9.70;99.90;;;;;;5032190;28;20749;-78
2022/12/29 12:39:38;;;;;;;13.82;2.65;;;9.10;99.90;;;;;;5029871;28;20045;-78
2022/12/29 12:42:22;;;;;;;17.35;3.67;;;10.10;99.90;;;;;;5040476;28;20507;-78
2022/12/29 12:44:57;;;;;;;19.50;2.88;;;9.10;99.90;;;;;;5046376;28;20071;-78
2022/12/29 12:47:25;;;;;;;;;;;9.10;99.90;;;;;;5044582;28;20495;-78
2022/12/29 12:50:17;;;;;;;12.98;2.30;;;9.10;99.90;;;;;;5043045;28;20680;-77
2022/12/29 12:53:37;;;;;;;12.85;2.08;;;9.10;99.90;;;;;;5047253;28;20477;-78
2022/12/29 12:56:05;;;;;;;16.27;2.28;;;10.10;99.90;;;;;;4980143;28;20069;-79
2022/12/29 12:58:43;;;;;;;10.88;1.70;;;9.20;99.90;;;;;;5004422;28;20045;-77
2022/12/29 13:01:20;;;;;;;14.00;1.42;;;9.20;99.90;;;;;;5028105;28;20051;-78
2022/12/29 13:04:02;;;;;;;14.60;2.00;;;9.20;99.90;;;;;;5077386;28;20436;-76
2022/12/29 13:07:06;;;;;;;14.75;1.70;;;9.20;99.90;;;;;;5025478;28;20071;-77
2022/12/29 13:09:45;;;;;;;12.48;2.15;;;9.30;99.90;;;;;;5026923;28;20118;-77
2022/12/29 13:12:41;;;;;;;13.02;1.85;;;9.20;99.90;;;;;;5058538;28;20041;-81
2022/12/29 13:15:13;;;;;;;9.38;1.73;;;9.20;99.90;;;;;;5041363;28;20069;-79
2022/12/29 13:18:02;;;;;;;12.75;1.95;;;9.10;99.90;;;;;;5063087;28;20678;-78
2022/12/29 13:20:36;;;;;;;14.23;1.95;;;9.20;99.90;;;;;;5026765;28;20536;-77
2022/12/29 13:23:09;;;;;;;;;;;9.20;99.90;;;;;;5027815;28;20111;-77
2022/12/29 13:26:07;;;;;;;10.40;2.28;;;9.20;99.90;;;;;;4338410;28;10000741;-77
2022/12/29 13:28:48;;;;;;;10.38;1.90;;;9.00;99.90;;;;;;5041937;28;20049;-77
2022/12/29 13:31:37;;;;;;;11.25;1.98;;;9.00;99.90;;;;;;5040025;28;20504;-74
2022/12/29 13:34:42;;;;;;;14.15;1.95;;;9.10;99.90;;;;;;5050314;28;20299;-79
2022/12/29 13:37:18;;;;;;;11.38;1.95;;;9.00;99.90;;;;;;5030849;28;20066;-78
2022/12/29 13:39:56;;;;;;;11.60;2.72;;;9.10;99.90;;;;;;5050051;28;20404;-76
2022/12/29 13:42:23;;;;;;;10.90;1.73;;;9.10;99.90;;;;;;5039120;28;20045;-78
2022/12/29 13:45:01;;;;;;;16.00;2.88;;;9.00;99.90;;;;;;5029696;28;20080;-77
2022/12/29 13:47:33;;;;;;;8.35;1.63;;;9.00;99.90;;;;;;5045344;28;20037;-76